Vanquish — PHCU — position and weather

sailwx.info

Track history (hours):
 
Tides and Currents Weather Stations Pressure Air Temp Water Temp Dewpoint Dewpoint Depression Visibility Wind Speed Wind Dir Waves Ship Positions

Vanquish

Last reported at 2016-Jul-29 17:08 UTC. Time now 2016-Jul-31 00:21 UTC.
Position N 54°46' W 000°53'.

MMSI: 246138952.

Date/timePositionNaut miles runAvg speedWind from/ knotsBaromVisibWave heightAir tempDewpointWater temp
2016-Jul-29 17:08N 54°46' W 000°53'11 1.0
2016-Jul-29 06:19N 54°39' W 001°08'8 9.9
2016-Jul-29 05:33N 54°44' W 000°58'1010.2
2016-Jul-29 04:33N 54°48' W 000°43'41110.8
2016-Jul-27 14:29N 57°46' E 010°24'1111.5
2016-Jul-27 13:32N 57°48' E 010°44'1212.5
2016-Jul-27 12:33N 57°41' E 011°02'1313.4
2016-Jul-27 11:33N 57°31' E 011°20'1313.3
2016-Jul-27 10:33N 57°19' E 011°32'1313.0
2016-Jul-27 09:33N 57°07' E 011°40'1312.9
2016-Jul-27 08:33N 56°55' E 011°48'1212.1
2016-Jul-27 07:33N 56°43' E 011°55'1312.7
2016-Jul-27 06:33N 56°31' E 012°00'1413.7
2016-Jul-27 05:33N 56°20' E 012°14'1313.4
2016-Jul-27 04:34N 56°09' E 012°29'1313.2
2016-Jul-27 03:33N 55°58' E 012°42'1312.9
2016-Jul-27 02:33N 55°45' E 012°42'1111.5
2016-Jul-27 01:33N 55°34' E 012°42'1212.2
2016-Jul-27 00:33N 55°22' E 012°41'1111.0
2016-Jul-26 23:33N 55°15' E 012°55'2912.8
2016-Jul-26 21:18N 54°57' E 013°35'1013.1
2016-Jul-26 20:34N 54°51' E 013°49'1313.3
2016-Jul-26 19:33N 54°43' E 014°07'2812.1
2016-Jul-26 17:13N 54°40' E 014°56'812.0
2016-Jul-26 16:33N 54°42' E 015°10'7212.0
2016-Jul-26 10:33N 54°54' E 017°13'1312.6
2016-Jul-26 09:33N 54°56' E 017°35'1212.5
2016-Jul-26 08:33N 54°57' E 017°57'1312.9
2016-Jul-26 07:33N 54°58' E 018°19'1211.9
2016-Jul-26 06:33N 54°55' E 018°39'1313.2
2016-Jul-26 05:33N 54°47' E 018°57'1212.5
2016-Jul-26 04:33N 54°35' E 018°53'1211.7
2016-Jul-26 03:33N 54°32' E 018°33'1 1.4
2016-Jul-26 02:34N 54°33' E 018°30'0 0.0
2016-Jul-26 01:33N 54°33' E 018°31'0 0.0
2016-Jul-26 00:33N 54°33' E 018°30'0 0.0
2016-Jul-25 23:34N 54°33' E 018°31'0 0.0
2016-Jul-25 22:34N 54°33' E 018°30'0 0.0
2016-Jul-25 21:33N 54°33' E 018°30'0 0.0
2016-Jul-25 20:33N 54°33' E 018°30'0 0.0
2016-Jul-25 19:33N 54°33' E 018°30'0 0.4
2016-Jul-25 18:34N 54°32' E 018°31'10 9.5
2016-Jul-25 17:34N 54°32' E 018°48'1110.9
2016-Jul-25 16:33N 54°42' E 018°57'1010.0
2016-Jul-25 15:34N 54°50' E 018°48'1211.8
2016-Jul-25 14:33N 54°57' E 018°31'1211.8
2016-Jul-25 13:33N 54°56' E 018°10'1211.9
2016-Jul-25 12:33N 54°55' E 017°50'1211.9
2016-Jul-25 11:33N 54°53' E 017°29'3611.9
2016-Jul-25 08:32N 54°47' E 016°28'1411.9
2016-Jul-25 07:23N 54°44' E 016°05'2311.9
2016-Jul-25 05:25N 54°41' E 015°25'1512.2
2016-Jul-25 04:11N 54°38' E 014°59'2212.1
2016-Jul-25 02:23N 54°36' E 014°21'1012.0
2016-Jul-25 01:34N 54°40' E 014°06'1212.2
2016-Jul-25 00:33N 54°48' E 013°49'1212.1
2016-Jul-24 23:34N 54°55' E 013°33'1212.2
2016-Jul-24 22:34N 55°03' E 013°16'1212.0
2016-Jul-24 21:34N 55°11' E 012°60'1211.9
2016-Jul-24 20:33N 55°17' E 012°42'1110.7
2016-Jul-24 19:33N 55°28' E 012°40'1212.1
2016-Jul-24 18:33N 55°40' E 012°41'1312.6
2016-Jul-24 17:33N 55°52' E 012°39'1211.7
2016-Jul-24 16:34N 56°04' E 012°37'1211.7
2016-Jul-24 15:33N 56°11' E 012°21'1212.2
2016-Jul-24 14:34N 56°18' E 012°03'1312.5
2016-Jul-24 13:33N 56°30' E 011°57'1212.1
2016-Jul-24 12:34N 56°42' E 011°53'1212.0
2016-Jul-24 11:33N 56°54' E 011°46'1312.6
2016-Jul-24 10:33N 57°05' E 011°38'1212.4
2016-Jul-24 09:33N 57°17' E 011°31'1212.3
2016-Jul-24 08:33N 57°28' E 011°22'1212.1
2016-Jul-24 07:33N 57°36' E 011°05'1212.2
2016-Jul-24 06:33N 57°45' E 010°48'1211.6
2016-Jul-24 05:33N 57°45' E 010°27'1212.2
2016-Jul-24 04:33N 57°42' E 010°05'1312.5
2016-Jul-24 03:32N 57°38' E 009°42'32012.3
2016-Jul-23 01:32N 55°18' E 001°00'1313.2
2016-Jul-23 00:33N 55°12' E 000°40'1313.5
2016-Jul-22 23:33N 55°06' E 000°19'1513.7
2016-Jul-22 22:29N 55°00' W 000°04'2813.6
2016-Jul-22 20:27N 54°47' W 000°47'7 0.4
2016-Jul-22 05:33N 54°44' W 000°57'5011.3
2016-Jul-22 01:10N 55°06' E 000°20'31411.4
2016-Jul-20 21:32N 57°25' E 008°47'1211.2
2016-Jul-20 20:26N 57°30' E 009°08'1011.3
2016-Jul-20 19:33N 57°34' E 009°24'1111.5
2016-Jul-20 18:34N 57°39' E 009°44'1111.5
2016-Jul-20 17:34N 57°42' E 010°04'1111.3
2016-Jul-20 16:34N 57°45' E 010°25'1111.4
2016-Jul-20 15:34N 57°48' E 010°46'1111.0
2016-Jul-20 14:34N 57°41' E 011°01'1111.4
2016-Jul-20 13:34N 57°33' E 011°16'1111.3
2016-Jul-20 12:34N 57°24' E 011°29'2311.4
2016-Jul-20 10:30N 57°02' E 011°44'2211.2
2016-Jul-20 08:34N 56°41' E 011°56'1111.3
2016-Jul-20 07:34N 56°30' E 012°00'1211.3
2016-Jul-20 06:32N 56°21' E 012°13'1211.8
2016-Jul-20 05:34N 56°12' E 012°26'1313.1
2016-Jul-20 04:33N 56°01' E 012°40'1211.8
2016-Jul-20 03:33N 55°50' E 012°43'1212.1
2016-Jul-20 02:33N 55°38' E 012°42'1212.1
2016-Jul-20 01:33N 55°25' E 012°42'10 9.5
2016-Jul-20 00:33N 55°17' E 012°49'1111.0
2016-Jul-19 23:33N 55°10' E 013°05'1211.6
2016-Jul-19 22:33N 55°03' E 013°20'1211.9
2016-Jul-19 21:33N 54°56' E 013°37'1211.7
2016-Jul-19 20:33N 54°49' E 013°53'1211.7
2016-Jul-19 19:33N 54°42' E 014°09'1111.1
2016-Jul-19 18:33N 54°38' E 014°27'1412.7
2016-Jul-19 17:29N 54°40' E 014°50'  
Track history (hours):
 
Tides and Currents Weather Stations Pressure Air Temp Water Temp Dewpoint Dewpoint Depression Visibility Wind Speed Wind Dir Waves Ship Positions

Vanquish

Last reported at 2016-Jul-29 17:08 UTC. Time now 2016-Jul-31 00:21 UTC.
Position N 54°46' W 000°53'.

MMSI: 246138952.

Date/timePositionNaut miles runAvg speedWind from/ knotsBaromVisibWave heightAir tempDewpointWater temp
2016-Jul-29 17:08N 54°46' W 000°53'11 1.0
2016-Jul-29 06:19N 54°39' W 001°08'8 9.9
2016-Jul-29 05:33N 54°44' W 000°58'1010.2
2016-Jul-29 04:33N 54°48' W 000°43'41110.8
2016-Jul-27 14:29N 57°46' E 010°24'1111.5
2016-Jul-27 13:32N 57°48' E 010°44'1212.5
2016-Jul-27 12:33N 57°41' E 011°02'1313.4
2016-Jul-27 11:33N 57°31' E 011°20'1313.3
2016-Jul-27 10:33N 57°19' E 011°32'1313.0
2016-Jul-27 09:33N 57°07' E 011°40'1312.9
2016-Jul-27 08:33N 56°55' E 011°48'1212.1
2016-Jul-27 07:33N 56°43' E 011°55'1312.7
2016-Jul-27 06:33N 56°31' E 012°00'1413.7
2016-Jul-27 05:33N 56°20' E 012°14'1313.4
2016-Jul-27 04:34N 56°09' E 012°29'1313.2
2016-Jul-27 03:33N 55°58' E 012°42'1312.9
2016-Jul-27 02:33N 55°45' E 012°42'1111.5
2016-Jul-27 01:33N 55°34' E 012°42'1212.2
2016-Jul-27 00:33N 55°22' E 012°41'1111.0
2016-Jul-26 23:33N 55°15' E 012°55'2912.8
2016-Jul-26 21:18N 54°57' E 013°35'1013.1
2016-Jul-26 20:34N 54°51' E 013°49'1313.3
2016-Jul-26 19:33N 54°43' E 014°07'2812.1
2016-Jul-26 17:13N 54°40' E 014°56'812.0
2016-Jul-26 16:33N 54°42' E 015°10'7212.0
2016-Jul-26 10:33N 54°54' E 017°13'1312.6
2016-Jul-26 09:33N 54°56' E 017°35'1212.5
2016-Jul-26 08:33N 54°57' E 017°57'1312.9
2016-Jul-26 07:33N 54°58' E 018°19'1211.9
2016-Jul-26 06:33N 54°55' E 018°39'1313.2
2016-Jul-26 05:33N 54°47' E 018°57'1212.5
2016-Jul-26 04:33N 54°35' E 018°53'1211.7
2016-Jul-26 03:33N 54°32' E 018°33'1 1.4
2016-Jul-26 02:34N 54°33' E 018°30'0 0.0
2016-Jul-26 01:33N 54°33' E 018°31'0 0.0
2016-Jul-26 00:33N 54°33' E 018°30'0 0.0
2016-Jul-25 23:34N 54°33' E 018°31'0 0.0
2016-Jul-25 22:34N 54°33' E 018°30'0 0.0
2016-Jul-25 21:33N 54°33' E 018°30'0 0.0
2016-Jul-25 20:33N 54°33' E 018°30'0 0.0
2016-Jul-25 19:33N 54°33' E 018°30'0 0.4
2016-Jul-25 18:34N 54°32' E 018°31'10 9.5
2016-Jul-25 17:34N 54°32' E 018°48'1110.9
2016-Jul-25 16:33N 54°42' E 018°57'1010.0
2016-Jul-25 15:34N 54°50' E 018°48'1211.8
2016-Jul-25 14:33N 54°57' E 018°31'1211.8
2016-Jul-25 13:33N 54°56' E 018°10'1211.9
2016-Jul-25 12:33N 54°55' E 017°50'1211.9
2016-Jul-25 11:33N 54°53' E 017°29'3611.9
2016-Jul-25 08:32N 54°47' E 016°28'1411.9
2016-Jul-25 07:23N 54°44' E 016°05'2311.9
2016-Jul-25 05:25N 54°41' E 015°25'1512.2
2016-Jul-25 04:11N 54°38' E 014°59'2212.1
2016-Jul-25 02:23N 54°36' E 014°21'1012.0
2016-Jul-25 01:34N 54°40' E 014°06'1212.2
2016-Jul-25 00:33N 54°48' E 013°49'1212.1
2016-Jul-24 23:34N 54°55' E 013°33'1212.2
2016-Jul-24 22:34N 55°03' E 013°16'1212.0
2016-Jul-24 21:34N 55°11' E 012°60'1211.9
2016-Jul-24 20:33N 55°17' E 012°42'1110.7
2016-Jul-24 19:33N 55°28' E 012°40'1212.1
2016-Jul-24 18:33N 55°40' E 012°41'1312.6
2016-Jul-24 17:33N 55°52' E 012°39'1211.7
2016-Jul-24 16:34N 56°04' E 012°37'1211.7
2016-Jul-24 15:33N 56°11' E 012°21'1212.2
2016-Jul-24 14:34N 56°18' E 012°03'1312.5
2016-Jul-24 13:33N 56°30' E 011°57'1212.1
2016-Jul-24 12:34N 56°42' E 011°53'1212.0
2016-Jul-24 11:33N 56°54' E 011°46'1312.6
2016-Jul-24 10:33N 57°05' E 011°38'1212.4
2016-Jul-24 09:33N 57°17' E 011°31'1212.3
2016-Jul-24 08:33N 57°28' E 011°22'1212.1
2016-Jul-24 07:33N 57°36' E 011°05'1212.2
2016-Jul-24 06:33N 57°45' E 010°48'1211.6
2016-Jul-24 05:33N 57°45' E 010°27'1212.2
2016-Jul-24 04:33N 57°42' E 010°05'1312.5
2016-Jul-24 03:32N 57°38' E 009°42'32012.3
2016-Jul-23 01:32N 55°18' E 001°00'1313.2
2016-Jul-23 00:33N 55°12' E 000°40'1313.5
2016-Jul-22 23:33N 55°06' E 000°19'1513.7
2016-Jul-22 22:29N 55°00' W 000°04'2813.6
2016-Jul-22 20:27N 54°47' W 000°47'7 0.4
2016-Jul-22 05:33N 54°44' W 000°57'5011.3
2016-Jul-22 01:10N 55°06' E 000°20'31411.4
2016-Jul-20 21:32N 57°25' E 008°47'1211.2
2016-Jul-20 20:26N 57°30' E 009°08'1011.3
2016-Jul-20 19:33N 57°34' E 009°24'1111.5
2016-Jul-20 18:34N 57°39' E 009°44'1111.5
2016-Jul-20 17:34N 57°42' E 010°04'1111.3
2016-Jul-20 16:34N 57°45' E 010°25'1111.4
2016-Jul-20 15:34N 57°48' E 010°46'1111.0
2016-Jul-20 14:34N 57°41' E 011°01'1111.4
2016-Jul-20 13:34N 57°33' E 011°16'1111.3
2016-Jul-20 12:34N 57°24' E 011°29'2311.4
2016-Jul-20 10:30N 57°02' E 011°44'2211.2
2016-Jul-20 08:34N 56°41' E 011°56'1111.3
2016-Jul-20 07:34N 56°30' E 012°00'1211.3
2016-Jul-20 06:32N 56°21' E 012°13'1211.8
2016-Jul-20 05:34N 56°12' E 012°26'1313.1
2016-Jul-20 04:33N 56°01' E 012°40'1211.8
2016-Jul-20 03:33N 55°50' E 012°43'1212.1
2016-Jul-20 02:33N 55°38' E 012°42'1212.1
2016-Jul-20 01:33N 55°25' E 012°42'10 9.5
2016-Jul-20 00:33N 55°17' E 012°49'1111.0
2016-Jul-19 23:33N 55°10' E 013°05'1211.6
2016-Jul-19 22:33N 55°03' E 013°20'1211.9
2016-Jul-19 21:33N 54°56' E 013°37'1211.7
2016-Jul-19 20:33N 54°49' E 013°53'1211.7
2016-Jul-19 19:33N 54°42' E 014°09'1111.1
2016-Jul-19 18:33N 54°38' E 014°27'1412.7
2016-Jul-19 17:29N 54°40' E 014°50'  

Dump ship's entire track history